createdAt,value
2023-01-10T00:01:52.365Z,19.45
2023-01-10T00:04:19.091Z,20.45
2023-01-10T00:06:45.697Z,20.38
2023-01-10T00:09:12.327Z,17.42
2023-01-10T00:11:57.538Z,17.63
2023-01-10T00:14:24.071Z,16.00
2023-01-10T00:16:50.617Z,19.92
2023-01-10T00:19:17.263Z,17.98
2023-01-10T00:21:43.837Z,16.52
2023-01-10T00:24:18.859Z,16.92
2023-01-10T00:26:50.934Z,16.63
2023-01-10T00:29:24.048Z,16.35
2023-01-10T00:31:50.567Z,17.50
2023-01-10T00:34:17.451Z,16.38
2023-01-10T00:36:45.649Z,16.85
2023-01-10T00:39:12.289Z,15.38
2023-01-10T00:41:57.951Z,14.18
2023-01-10T00:44:24.467Z,14.80
2023-01-10T00:46:50.931Z,14.18
2023-01-10T00:49:17.550Z,13.80
2023-01-10T00:51:45.049Z,15.95
2023-01-10T00:54:12.814Z,13.63
2023-01-10T00:56:39.430Z,13.02
2023-01-10T00:59:06.664Z,14.70
2023-01-10T01:01:33.555Z,12.55
2023-01-10T01:04:00.296Z,12.50
2023-01-10T01:06:26.950Z,14.82
2023-01-10T01:08:53.500Z,11.40
2023-01-10T01:11:20.075Z,12.07
2023-01-10T01:13:46.549Z,13.07
2023-01-10T01:16:13.573Z,13.32
2023-01-10T01:18:40.144Z,13.70
2023-01-10T01:21:06.775Z,12.25
2023-01-10T01:23:34.833Z,11.85
2023-01-10T01:26:01.637Z,11.38
2023-01-10T01:28:28.458Z,10.52
2023-01-10T01:30:55.009Z,9.80
2023-01-10T01:33:21.617Z,9.45
2023-01-10T01:35:49.742Z,11.35
2023-01-10T01:38:17.462Z,10.75
2023-01-10T01:40:44.965Z,11.55
2023-01-10T01:43:29.167Z,14.80
2023-01-10T01:46:00.408Z,11.23
2023-01-10T01:48:36.698Z,9.82
2023-01-10T01:51:21.090Z,10.20
2023-01-10T01:53:50.984Z,10.43
2023-01-10T01:56:24.456Z,9.38
2023-01-10T01:59:05.666Z,9.38
2023-01-10T02:01:34.047Z,9.43
2023-01-10T02:04:12.224Z,8.38
2023-01-10T02:06:39.157Z,9.43
2023-01-10T02:09:14.530Z,8.65
2023-01-10T02:11:41.170Z,10.07
2023-01-10T02:14:10.331Z,9.45
2023-01-10T02:16:36.873Z,7.18
2023-01-10T02:19:08.060Z,9.75
2023-01-10T02:21:58.883Z,9.65
2023-01-10T02:24:40.618Z,10.90
2023-01-10T02:27:33.082Z,9.07
2023-01-10T02:30:13.951Z,8.93
2023-01-10T02:33:05.845Z,7.65
2023-01-10T02:36:09.361Z,8.60
2023-01-10T02:38:40.995Z,9.70
2023-01-10T02:41:22.394Z,10.32
2023-01-10T02:43:54.451Z,8.43
2023-01-10T02:46:27.429Z,8.73
2023-01-10T02:48:55.248Z,9.15
2023-01-10T02:51:21.746Z,7.75
2023-01-10T02:53:57.733Z,6.35
2023-01-10T02:56:27.125Z,9.52
2023-01-10T02:59:11.947Z,6.75
2023-01-10T03:01:38.532Z,7.60
2023-01-10T03:04:41.691Z,7.13
2023-01-10T03:07:25.238Z,7.00
2023-01-10T03:09:58.442Z,10.05
2023-01-10T03:12:45.416Z,7.32
2023-01-10T03:15:15.535Z,6.22
2023-01-10T03:17:44.839Z,6.57
2023-01-10T03:20:11.987Z,7.50
2023-01-10T03:22:40.009Z,7.00
2023-01-10T03:25:10.493Z,6.78
2023-01-10T03:28:04.613Z,6.63
2023-01-10T03:30:44.535Z,8.02
2023-01-10T03:33:12.899Z,7.80
2023-01-10T03:36:08.841Z,8.13
2023-01-10T03:39:05.397Z,7.85
2023-01-10T03:41:49.474Z,7.85
2023-01-10T03:47:41.273Z,5.55
2023-01-10T03:50:20.063Z,7.10
2023-01-10T03:52:46.900Z,4.60
2023-01-10T03:55:19.304Z,5.50
2023-01-10T03:57:45.934Z,8.45
2023-01-10T04:00:14.067Z,7.43
2023-01-10T04:02:40.586Z,8.82
2023-01-10T04:05:07.443Z,6.13
2023-01-10T04:07:34.447Z,7.85
2023-01-10T04:10:01.025Z,5.45
2023-01-10T04:12:27.636Z,6.80
2023-01-10T04:14:54.126Z,10.68
2023-01-10T04:17:20.696Z,5.22
2023-01-10T04:19:47.234Z,5.40
2023-01-10T04:22:14.148Z,7.50
2023-01-10T04:24:41.165Z,7.55
2023-01-10T04:27:07.708Z,7.70
2023-01-10T04:29:34.251Z,6.25
2023-01-10T04:32:01.108Z,7.53
2023-01-10T04:34:27.876Z,5.60
2023-01-10T04:36:54.444Z,5.70
2023-01-10T04:39:20.942Z,5.25
2023-01-10T04:41:47.420Z,7.53
2023-01-10T04:44:13.977Z,5.07
2023-01-10T04:46:40.483Z,7.25
2023-01-10T04:49:07.367Z,7.57
2023-01-10T04:51:33.925Z,4.93
2023-01-10T04:54:00.483Z,6.75
2023-01-10T04:56:27.025Z,6.65
2023-01-10T04:58:54.162Z,6.10
2023-01-10T05:01:23.955Z,6.65
2023-01-10T05:03:51.908Z,7.10
2023-01-10T05:06:19.656Z,6.88
2023-01-10T05:08:46.370Z,6.10
2023-01-10T05:11:13.373Z,6.65
2023-01-10T05:13:41.409Z,9.98
2023-01-10T05:16:08.422Z,7.57
2023-01-10T05:18:35.065Z,7.45
2023-01-10T05:21:11.061Z,5.38
2023-01-10T05:23:38.648Z,7.93
2023-01-10T05:26:19.271Z,8.52
2023-01-10T05:28:46.054Z,6.60
2023-01-10T05:31:15.228Z,6.38
2023-01-10T05:33:51.408Z,8.80
2023-01-10T05:36:18.988Z,5.10
2023-01-10T05:38:45.957Z,9.35
2023-01-10T05:41:12.487Z,6.70
2023-01-10T05:43:39.000Z,6.45
2023-01-10T05:46:05.931Z,6.53
2023-01-10T05:48:32.594Z,6.90
2023-01-10T05:50:59.114Z,9.23
2023-01-10T05:53:25.922Z,9.15
2023-01-10T05:56:00.574Z,6.00
2023-01-10T05:58:28.841Z,6.65
2023-01-10T06:00:56.658Z,7.95
2023-01-10T06:03:23.490Z,8.65
2023-01-10T06:05:50.059Z,5.50
2023-01-10T06:08:17.343Z,8.05
2023-01-10T06:10:44.365Z,6.97
2023-01-10T06:13:12.196Z,7.55
2023-01-10T06:15:39.290Z,7.47
2023-01-10T06:18:06.211Z,8.32
2023-01-10T06:20:32.706Z,10.73
2023-01-10T06:23:02.225Z,9.95
2023-01-10T06:25:29.386Z,6.88
2023-01-10T06:27:56.512Z,9.65
2023-01-10T06:30:23.251Z,16.02
2023-01-10T06:32:49.775Z,9.38
2023-01-10T06:35:18.009Z,6.57
2023-01-10T06:37:44.781Z,10.30
2023-01-10T06:40:11.813Z,9.30
2023-01-10T06:42:39.811Z,7.80
2023-01-10T06:45:06.666Z,8.57
2023-01-10T06:47:33.188Z,10.35
2023-01-10T06:49:59.708Z,7.15
2023-01-10T06:52:26.231Z,10.23
2023-01-10T06:54:53.177Z,10.95
2023-01-10T06:57:19.797Z,11.45
2023-01-10T06:59:46.321Z,8.20
2023-01-10T07:02:13.279Z,11.07
2023-01-10T07:04:39.814Z,10.93
2023-01-10T07:07:06.300Z,12.25
2023-01-10T07:09:32.842Z,11.77
2023-01-10T07:11:59.357Z,8.90
2023-01-10T07:14:25.900Z,9.50
2023-01-10T07:16:52.413Z,8.82
2023-01-10T07:19:19.975Z,8.48
2023-01-10T07:21:46.964Z,6.93
2023-01-10T07:24:13.786Z,7.72
2023-01-10T07:26:40.605Z,10.38
2023-01-10T07:29:07.454Z,10.00
2023-01-10T07:31:34.090Z,13.00
2023-01-10T07:34:00.835Z,9.88
2023-01-10T07:36:27.439Z,8.02
2023-01-10T07:38:54.045Z,13.50
2023-01-10T07:41:20.608Z,12.18
2023-01-10T07:43:48.800Z,7.60
2023-01-10T07:46:15.618Z,14.70
2023-01-10T07:48:42.546Z,14.82
2023-01-10T07:51:09.671Z,10.52
2023-01-10T07:53:36.338Z,8.43
2023-01-10T07:56:03.878Z,12.80
2023-01-10T07:58:30.671Z,10.55
2023-01-10T08:01:02.414Z,11.50
2023-01-10T08:03:33.363Z,10.48
2023-01-10T08:06:05.898Z,8.10
2023-01-10T08:08:33.531Z,10.70
2023-01-10T08:11:02.793Z,12.02
2023-01-10T08:13:30.320Z,10.88
2023-01-10T08:15:57.237Z,11.43
2023-01-10T08:18:24.823Z,11.05
2023-01-10T08:20:53.109Z,11.45
2023-01-10T08:23:20.775Z,11.20
2023-01-10T08:25:47.475Z,9.02
2023-01-10T08:28:15.002Z,9.90
2023-01-10T08:30:41.603Z,10.00
2023-01-10T08:33:09.031Z,14.15
2023-01-10T08:35:40.172Z,14.27
2023-01-10T08:38:06.948Z,12.52
2023-01-10T08:40:33.513Z,10.38
2023-01-10T08:43:02.039Z,10.75
2023-01-10T08:45:29.261Z,13.02
2023-01-10T08:47:56.143Z,7.72
2023-01-10T08:50:24.080Z,12.77
2023-01-10T08:52:51.333Z,7.13
2023-01-10T08:55:18.923Z,11.18
2023-01-10T08:57:45.604Z,10.65
2023-01-10T09:00:13.109Z,12.00
2023-01-10T09:02:40.590Z,11.35
2023-01-10T09:05:12.286Z,12.13
2023-01-10T09:07:48.790Z,9.82
2023-01-10T09:10:15.444Z,12.35
2023-01-10T09:12:57.045Z,11.15
2023-01-10T09:15:25.975Z,9.40
2023-01-10T09:17:56.960Z,13.85
2023-01-10T09:20:25.830Z,12.18
2023-01-10T09:22:53.097Z,11.30
2023-01-10T09:25:19.924Z,11.68
2023-01-10T09:27:46.657Z,13.32
2023-01-10T09:30:14.079Z,11.10
2023-01-10T09:32:40.742Z,11.32
2023-01-10T09:35:07.538Z,12.52
2023-01-10T09:37:34.933Z,11.80
2023-01-10T09:40:01.540Z,11.85
2023-01-10T09:42:31.399Z,13.60
2023-01-10T09:45:16.485Z,11.85
2023-01-10T09:48:05.439Z,10.68
2023-01-10T09:50:36.039Z,12.27
2023-01-10T09:53:11.575Z,7.43
2023-01-10T09:55:39.096Z,10.38
2023-01-10T09:58:11.162Z,10.98
2023-01-10T10:00:49.351Z,11.80
2023-01-10T10:03:21.990Z,12.65
2023-01-10T10:05:50.532Z,10.45
2023-01-10T10:08:20.011Z,10.68
2023-01-10T10:11:17.277Z,10.65
2023-01-10T10:13:58.829Z,12.35
2023-01-10T10:16:48.794Z,15.48
2023-01-10T10:19:40.376Z,15.32
2023-01-10T10:22:20.611Z,11.43
2023-01-10T10:25:11.860Z,11.05
2023-01-10T10:27:57.002Z,12.27
2023-01-10T10:30:35.244Z,12.82
2023-01-10T10:33:16.409Z,12.95
2023-01-10T10:35:50.567Z,12.05
2023-01-10T10:38:29.941Z,14.75
2023-01-10T10:40:59.920Z,14.35
2023-01-10T10:43:37.464Z,13.20
2023-01-10T10:46:09.234Z,14.02
2023-01-10T10:48:58.036Z,11.25
2023-01-10T10:51:48.058Z,13.02
2023-01-10T10:54:15.104Z,18.67
2023-01-10T10:56:43.105Z,15.05
2023-01-10T10:59:11.960Z,9.40
2023-01-10T11:01:38.802Z,15.38
2023-01-10T11:04:10.324Z,14.45
2023-01-10T11:06:38.654Z,14.45
2023-01-10T11:09:06.826Z,16.45
2023-01-10T11:11:40.940Z,14.60
2023-01-10T11:14:08.770Z,14.38
2023-01-10T11:16:39.928Z,12.90
2023-01-10T11:19:26.785Z,12.40
2023-01-10T11:21:59.808Z,15.27
2023-01-10T11:24:40.806Z,13.38
2023-01-10T11:27:18.120Z,12.00
2023-01-10T11:29:56.248Z,14.55
2023-01-10T11:32:30.637Z,9.38
2023-01-10T11:35:01.501Z,13.07
2023-01-10T11:37:32.849Z,11.80
2023-01-10T11:40:08.170Z,11.55
2023-01-10T11:42:34.751Z,15.05
2023-01-10T11:45:13.521Z,12.60
2023-01-10T11:47:45.682Z,9.90
2023-01-10T11:50:19.277Z,9.68
2023-01-10T11:52:46.413Z,12.65
2023-01-10T11:55:20.031Z,12.32
2023-01-10T11:57:54.744Z,8.13
2023-01-10T12:00:21.916Z,11.55
2023-01-10T12:02:50.188Z,9.88
2023-01-10T12:05:22.269Z,8.75
2023-01-10T12:07:59.447Z,11.50
2023-01-10T12:10:28.753Z,10.45
2023-01-10T12:12:58.137Z,10.35
2023-01-10T12:15:28.194Z,15.63
2023-01-10T12:18:00.221Z,6.97
2023-01-10T12:20:29.926Z,14.10
2023-01-10T12:23:00.912Z,6.85
2023-01-10T12:25:34.141Z,12.40
2023-01-10T12:28:01.632Z,9.18
2023-01-10T12:30:43.626Z,8.85
2023-01-10T12:33:27.433Z,13.25
2023-01-10T12:36:13.374Z,10.85
2023-01-10T12:39:10.597Z,9.73
2023-01-10T12:42:13.313Z,9.35
2023-01-10T12:44:43.026Z,10.85
2023-01-10T12:47:13.668Z,10.40
2023-01-10T12:50:03.940Z,10.68
2023-01-10T12:52:52.644Z,8.35
2023-01-10T12:55:21.692Z,11.38
2023-01-10T12:57:52.237Z,6.55
2023-01-10T13:00:40.336Z,9.05
2023-01-10T13:03:19.320Z,11.50
2023-01-10T13:05:49.513Z,9.82
2023-01-10T13:08:19.574Z,6.03
2023-01-10T13:10:49.765Z,14.52
2023-01-10T13:13:37.066Z,14.43
2023-01-10T13:16:28.329Z,7.75
2023-01-10T13:19:10.027Z,9.45
2023-01-10T13:21:38.590Z,9.43
2023-01-10T13:24:19.776Z,8.65
2023-01-10T13:27:02.224Z,12.13
2023-01-10T13:29:40.684Z,10.45
2023-01-10T13:32:31.051Z,12.88
2023-01-10T13:35:14.062Z,12.48
2023-01-10T13:37:43.230Z,8.25
2023-01-10T13:40:21.555Z,10.45
2023-01-10T13:43:33.435Z,9.40
2023-01-10T13:46:15.359Z,12.18
2023-01-10T13:49:03.471Z,10.25
2023-01-10T13:51:31.387Z,12.68
2023-01-10T13:54:02.453Z,11.43
2023-01-10T13:56:38.154Z,10.52
2023-01-10T13:59:40.664Z,11.63
2023-01-10T14:02:32.038Z,11.55
2023-01-10T14:05:07.782Z,13.07
2023-01-10T14:07:45.736Z,12.02
2023-01-10T14:10:27.206Z,8.60
2023-01-10T14:13:09.927Z,15.75
2023-01-10T14:15:45.859Z,7.88
2023-01-10T14:18:28.975Z,13.85
2023-01-10T14:21:28.642Z,9.02
2023-01-10T14:23:57.570Z,10.95
2023-01-10T14:26:32.875Z,13.40
2023-01-10T14:29:02.209Z,11.02
2023-01-10T14:31:29.266Z,11.68
2023-01-10T14:33:58.843Z,10.85
2023-01-10T14:36:35.920Z,10.00
2023-01-10T14:39:06.033Z,11.48
2023-01-10T14:41:38.276Z,9.75
2023-01-10T14:44:31.941Z,10.40
2023-01-10T14:47:02.947Z,13.05
2023-01-10T14:49:31.086Z,8.23
2023-01-10T14:52:15.846Z,11.25
2023-01-10T14:54:42.475Z,14.25
2023-01-10T14:57:21.094Z,8.85
2023-01-10T14:59:48.032Z,14.55
2023-01-10T15:02:23.949Z,13.55
2023-01-10T15:04:57.125Z,11.77
2023-01-10T15:07:25.387Z,11.93
2023-01-10T15:09:56.296Z,12.32
2023-01-10T15:12:24.703Z,9.77
2023-01-10T15:14:59.399Z,9.95
2023-01-10T15:17:27.656Z,14.30
2023-01-10T15:19:55.308Z,9.13
2023-01-10T15:22:33.694Z,11.35
2023-01-10T15:25:08.133Z,11.40
2023-01-10T15:27:37.015Z,12.18
2023-01-10T15:30:09.030Z,10.65
2023-01-10T15:32:39.377Z,14.50
2023-01-10T15:35:08.885Z,11.45
2023-01-10T15:37:40.792Z,9.50
2023-01-10T15:40:21.761Z,11.30
2023-01-10T15:42:48.407Z,19.15
2023-01-10T15:45:38.969Z,12.80
2023-01-10T15:48:24.510Z,10.15
2023-01-10T15:51:20.517Z,8.88
2023-01-10T15:53:55.714Z,6.57
2023-01-10T15:56:37.792Z,9.80
2023-01-10T15:59:06.430Z,11.02
2023-01-10T16:01:34.168Z,9.27
2023-01-10T16:04:04.408Z,7.63
2023-01-10T16:06:36.518Z,8.30
2023-01-10T16:09:08.802Z,7.07
2023-01-10T16:11:57.463Z,9.13
2023-01-10T16:14:24.310Z,8.05
2023-01-10T16:16:51.614Z,8.73
2023-01-10T16:19:18.159Z,7.72
2023-01-10T16:21:49.745Z,6.57
2023-01-10T16:24:20.062Z,5.95
2023-01-10T16:26:48.040Z,7.07
2023-01-10T16:29:14.710Z,7.47
2023-01-10T16:31:41.884Z,5.30
2023-01-10T16:34:09.171Z,6.05
2023-01-10T16:36:35.945Z,4.95
2023-01-10T16:39:15.490Z,7.20
2023-01-10T16:42:02.797Z,6.22
2023-01-10T16:44:30.664Z,5.07
2023-01-10T16:46:57.348Z,5.55
2023-01-10T16:49:24.718Z,3.92
2023-01-10T16:51:52.232Z,5.03
2023-01-10T16:54:21.497Z,6.25
2023-01-10T16:56:49.035Z,3.70
2023-01-10T16:59:18.115Z,5.22
2023-01-10T17:01:49.414Z,4.55
2023-01-10T17:04:21.642Z,3.92
2023-01-10T17:06:48.234Z,4.38
2023-01-10T17:09:23.983Z,4.90
2023-01-10T17:11:57.535Z,2.00
2023-01-10T17:14:24.156Z,2.88
2023-01-10T17:16:50.760Z,2.80
2023-01-10T17:19:17.350Z,3.20
2023-01-10T17:21:43.869Z,2.42
2023-01-10T17:24:12.102Z,2.85
2023-01-10T17:26:38.679Z,3.15
2023-01-10T17:29:05.296Z,2.38
2023-01-10T17:31:31.864Z,2.20
2023-01-10T17:33:58.414Z,1.70
2023-01-10T17:36:29.677Z,2.42
2023-01-10T17:38:57.066Z,1.58
2023-01-10T17:41:23.563Z,3.00
2023-01-10T17:43:50.141Z,2.80
2023-01-10T17:46:17.899Z,3.85
2023-01-10T17:48:45.076Z,2.25
2023-01-10T17:51:13.208Z,2.35
2023-01-10T17:53:40.803Z,1.40
2023-01-10T17:56:08.034Z,2.58
2023-01-10T17:58:35.768Z,2.40
2023-01-10T18:01:02.508Z,1.92
2023-01-10T18:03:29.099Z,2.78
2023-01-10T18:05:57.547Z,3.33
2023-01-10T18:08:25.376Z,3.05
2023-01-10T18:10:58.204Z,2.38
2023-01-10T18:13:25.029Z,2.03
2023-01-10T18:15:52.474Z,3.13
2023-01-10T18:18:21.230Z,2.67
2023-01-10T18:20:47.710Z,4.85
2023-01-10T18:23:22.299Z,2.40
2023-01-10T18:26:00.237Z,1.30
2023-01-10T18:28:40.043Z,2.97
2023-01-10T18:31:11.804Z,3.15
2023-01-10T18:33:38.469Z,3.65
2023-01-10T18:36:06.500Z,1.67
2023-01-10T18:38:34.794Z,2.35
2023-01-10T18:41:01.529Z,3.63
2023-01-10T18:43:29.786Z,4.20
2023-01-10T18:46:05.854Z,2.42
2023-01-10T18:48:32.495Z,2.88
2023-01-10T18:51:00.671Z,2.83
2023-01-10T18:53:27.233Z,1.90
2023-01-10T18:55:58.435Z,4.97
2023-01-10T18:58:31.209Z,2.15
2023-01-10T19:00:58.084Z,4.00
2023-01-10T19:03:24.737Z,3.50
2023-01-10T19:05:51.277Z,3.38
2023-01-10T19:08:17.903Z,2.55
2023-01-10T19:11:11.357Z,3.80
2023-01-10T19:13:32.173Z,3.50
2023-01-10T19:16:29.295Z,2.42
2023-01-10T19:18:58.440Z,3.20
2023-01-10T19:21:27.089Z,3.17
2023-01-10T19:23:57.932Z,3.33
2023-01-10T19:26:24.897Z,3.58
2023-01-10T19:28:52.193Z,2.63
2023-01-10T19:31:21.012Z,2.83
2023-01-10T19:33:48.242Z,2.70
2023-01-10T19:36:15.926Z,1.73
2023-01-10T19:38:42.646Z,2.97
2023-01-10T19:41:09.331Z,2.20
2023-01-10T19:43:35.868Z,2.30
2023-01-10T19:46:10.091Z,3.20
2023-01-10T19:48:38.214Z,3.85
2023-01-10T19:51:13.026Z,4.05
2023-01-10T19:53:42.264Z,2.60
2023-01-10T19:56:10.124Z,2.45
2023-01-10T19:58:38.151Z,3.17
2023-01-10T20:01:16.810Z,2.78
2023-01-10T20:03:46.551Z,2.58
2023-01-10T20:06:16.991Z,5.32
2023-01-10T20:08:47.594Z,4.25
2023-01-10T20:11:15.625Z,3.45
2023-01-10T20:13:48.203Z,3.08
2023-01-10T20:16:20.553Z,4.25
2023-01-10T20:18:48.444Z,3.80
2023-01-10T20:21:17.113Z,3.53
2023-01-10T20:23:44.874Z,3.95
2023-01-10T20:26:27.753Z,2.80
2023-01-10T20:28:56.063Z,3.80
2023-01-10T20:31:24.158Z,2.92
2023-01-10T20:33:51.036Z,4.38
2023-01-10T20:36:19.974Z,2.05
2023-01-10T20:38:47.057Z,4.85
2023-01-10T20:41:16.295Z,3.55
2023-01-10T20:43:43.679Z,3.20
2023-01-10T20:46:13.062Z,2.08
2023-01-10T20:48:40.674Z,4.55
2023-01-10T20:51:08.569Z,3.75
2023-01-10T20:53:35.273Z,2.58
2023-01-10T20:56:07.189Z,3.38
2023-01-10T20:58:37.055Z,4.63
2023-01-10T21:01:04.086Z,3.63
2023-01-10T21:03:30.600Z,3.88
2023-01-10T21:05:59.322Z,3.22
2023-01-10T21:08:26.407Z,3.35
2023-01-10T21:10:53.125Z,3.53
2023-01-10T21:13:19.699Z,2.80
2023-01-10T21:15:47.316Z,4.85
2023-01-10T21:18:16.066Z,5.07
2023-01-10T21:20:43.820Z,3.78
2023-01-10T21:23:10.655Z,4.22
2023-01-10T21:25:37.409Z,4.28
2023-01-10T21:28:09.286Z,2.40
2023-01-10T21:30:36.721Z,3.00
2023-01-10T21:33:04.306Z,3.13
2023-01-10T21:35:31.538Z,3.00
2023-01-10T21:37:58.204Z,2.38
2023-01-10T21:40:25.733Z,3.00
2023-01-10T21:42:52.978Z,3.20
2023-01-10T21:45:21.109Z,4.07
2023-01-10T21:47:49.276Z,3.05
2023-01-10T21:50:16.553Z,3.58
2023-01-10T21:52:43.474Z,3.13
2023-01-10T21:55:13.407Z,2.65
2023-01-10T21:57:40.021Z,2.10
2023-01-10T22:00:07.663Z,2.67
2023-01-10T22:02:35.117Z,2.53
2023-01-10T22:05:02.737Z,3.92
2023-01-10T22:07:29.457Z,3.97
2023-01-10T22:09:56.011Z,2.35
2023-01-10T22:12:24.342Z,2.75
2023-01-10T22:14:50.923Z,2.58
2023-01-10T22:17:17.519Z,3.08
2023-01-10T22:19:44.143Z,2.67
2023-01-10T22:22:11.439Z,2.53
2023-01-10T22:24:38.084Z,3.38
2023-01-10T22:27:05.061Z,3.13
2023-01-10T22:29:31.603Z,2.30
2023-01-10T22:31:58.188Z,1.75
2023-01-10T22:34:25.008Z,2.20
2023-01-10T22:36:51.545Z,1.98
2023-01-10T22:39:18.109Z,2.10
2023-01-10T22:41:44.690Z,2.58
2023-01-10T22:44:18.948Z,2.90
2023-01-10T22:46:46.454Z,2.33
2023-01-10T22:49:13.337Z,3.38
2023-01-10T22:51:39.865Z,3.55
2023-01-10T22:54:06.630Z,3.00
2023-01-10T22:56:33.376Z,2.10
2023-01-10T22:58:59.906Z,3.17
2023-01-10T23:01:26.508Z,2.05
2023-01-10T23:03:53.058Z,2.90
2023-01-10T23:06:19.957Z,2.50
2023-01-10T23:08:46.500Z,2.50
2023-01-10T23:11:16.322Z,2.20
2023-01-10T23:13:44.083Z,2.30
2023-01-10T23:16:15.058Z,3.60
2023-01-10T23:18:41.716Z,3.72
2023-01-10T23:21:09.020Z,5.82
2023-01-10T23:23:36.255Z,2.63
2023-01-10T23:26:07.438Z,3.15
2023-01-10T23:28:46.922Z,2.58
2023-01-10T23:31:15.829Z,2.92
2023-01-10T23:33:42.372Z,3.40
2023-01-10T23:36:09.823Z,3.70
2023-01-10T23:38:37.053Z,3.20
2023-01-10T23:41:03.582Z,1.85
2023-01-10T23:43:30.683Z,3.15
2023-01-10T23:45:57.623Z,2.90
2023-01-10T23:48:24.206Z,4.43
2023-01-10T23:50:51.003Z,3.58
2023-01-10T23:53:18.459Z,3.83
2023-01-10T23:55:45.015Z,3.50
2023-01-10T23:58:11.802Z,2.15
